Terminal Aerodrome Forecast
Issued by NWS

Home | Current Version | Previous Version | Text Only | Print | Product List | Glossary Off
Versions: 1 2 3 4 5 6 7 8 9 10 11 12 13 14 15 16 17

000
FTUS43 KGRB 191520 AAC
TAFMTW
TAF AMD
KMTW 191520Z 1915/2012 27008KT P6SM SCT008
      TEMPO 1915/1916 BKN008
     FM200200 23004KT P6SM FEW120
     FM200900 23004KT 3SM BR SKC=

USA.gov is the U.S. government's official web portal to all federal, state and local government web resources and services.